sensor_id;sensor_type;location;lat;lon;timestamp;temperature;humidity
55211;DHT22;41082;52.822;6.666;2023-02-17T00:02:17;10.10;99.90
55211;DHT22;41082;52.822;6.666;2023-02-17T00:04:42;10.20;99.90
55211;DHT22;41082;52.822;6.666;2023-02-17T00:07:08;10.20;99.90
55211;DHT22;41082;52.822;6.666;2023-02-17T00:09:33;10.10;99.90
55211;DHT22;41082;52.822;6.666;2023-02-17T00:11:59;10.20;99.90
55211;DHT22;41082;52.822;6.666;2023-02-17T00:14:24;10.20;99.90
55211;DHT22;41082;52.822;6.666;2023-02-17T00:16:50;10.20;99.90
55211;DHT22;41082;52.822;6.666;2023-02-17T00:19:15;10.20;99.90
55211;DHT22;41082;52.822;6.666;2023-02-17T00:21:52;10.20;99.90
55211;DHT22;41082;52.822;6.666;2023-02-17T00:24:18;10.20;99.90
55211;DHT22;41082;52.822;6.666;2023-02-17T00:26:43;10.20;99.90
55211;DHT22;41082;52.822;6.666;2023-02-17T00:29:09;10.20;99.90
55211;DHT22;41082;52.822;6.666;2023-02-17T00:31:34;10.20;99.90
55211;DHT22;41082;52.822;6.666;2023-02-17T00:34:00;10.20;99.90
55211;DHT22;41082;52.822;6.666;2023-02-17T00:36:26;10.20;99.90
55211;DHT22;41082;52.822;6.666;2023-02-17T00:38:53;10.20;99.90
55211;DHT22;41082;52.822;6.666;2023-02-17T00:41:19;10.20;99.90
55211;DHT22;41082;52.822;6.666;2023-02-17T00:43:46;10.20;99.90
55211;DHT22;41082;52.822;6.666;2023-02-17T00:46:12;10.20;99.90
55211;DHT22;41082;52.822;6.666;2023-02-17T00:48:38;10.20;99.90
55211;DHT22;41082;52.822;6.666;2023-02-17T00:51:03;10.20;99.90
55211;DHT22;41082;52.822;6.666;2023-02-17T00:53:29;10.10;99.90
55211;DHT22;41082;52.822;6.666;2023-02-17T00:55:55;10.20;99.90
55211;DHT22;41082;52.822;6.666;2023-02-17T00:58:20;10.10;99.90
55211;DHT22;41082;52.822;6.666;2023-02-17T01:00:46;10.20;99.90
55211;DHT22;41082;52.822;6.666;2023-02-17T01:03:12;10.20;99.90
55211;DHT22;41082;52.822;6.666;2023-02-17T01:05:42;10.20;99.90
55211;DHT22;41082;52.822;6.666;2023-02-17T01:08:08;10.20;99.90
55211;DHT22;41082;52.822;6.666;2023-02-17T01:10:39;10.20;99.90
55211;DHT22;41082;52.822;6.666;2023-02-17T01:13:06;10.20;99.90
55211;DHT22;41082;52.822;6.666;2023-02-17T01:15:37;10.10;99.90
55211;DHT22;41082;52.822;6.666;2023-02-17T01:18:03;10.20;99.90
55211;DHT22;41082;52.822;6.666;2023-02-17T01:20:28;10.10;99.90
55211;DHT22;41082;52.822;6.666;2023-02-17T01:22:54;10.10;99.90
55211;DHT22;41082;52.822;6.666;2023-02-17T01:25:19;10.10;99.90
55211;DHT22;41082;52.822;6.666;2023-02-17T01:27:45;10.10;99.90
55211;DHT22;41082;52.822;6.666;2023-02-17T01:30:11;10.10;99.90
55211;DHT22;41082;52.822;6.666;2023-02-17T01:32:37;10.20;99.90
55211;DHT22;41082;52.822;6.666;2023-02-17T01:35:03;10.20;99.90
55211;DHT22;41082;52.822;6.666;2023-02-17T01:37:31;10.10;99.90
55211;DHT22;41082;52.822;6.666;2023-02-17T01:39:57;10.20;99.90
55211;DHT22;41082;52.822;6.666;2023-02-17T01:42:23;10.20;99.90
55211;DHT22;41082;52.822;6.666;2023-02-17T01:48:15;10.20;99.90
55211;DHT22;41082;52.822;6.666;2023-02-17T01:51:09;10.20;99.90
55211;DHT22;41082;52.822;6.666;2023-02-17T01:53:43;10.10;99.90
55211;DHT22;41082;52.822;6.666;2023-02-17T01:56:10;10.20;99.90
55211;DHT22;41082;52.822;6.666;2023-02-17T01:58:39;10.20;99.90
55211;DHT22;41082;52.822;6.666;2023-02-17T02:01:06;10.20;99.90
55211;DHT22;41082;52.822;6.666;2023-02-17T02:03:34;10.20;99.90
55211;DHT22;41082;52.822;6.666;2023-02-17T02:06:04;10.20;99.90
55211;DHT22;41082;52.822;6.666;2023-02-17T02:08:37;10.20;99.90
55211;DHT22;41082;52.822;6.666;2023-02-17T02:11:04;10.20;99.90
55211;DHT22;41082;52.822;6.666;2023-02-17T02:13:29;10.20;99.90
55211;DHT22;41082;52.822;6.666;2023-02-17T02:16:12;10.20;99.90
55211;DHT22;41082;52.822;6.666;2023-02-17T02:19:02;10.20;99.90
55211;DHT22;41082;52.822;6.666;2023-02-17T02:24:27;10.20;99.90
55211;DHT22;41082;52.822;6.666;2023-02-17T02:30:10;10.20;99.90
55211;DHT22;41082;52.822;6.666;2023-02-17T02:35:36;10.20;99.90
55211;DHT22;41082;52.822;6.666;2023-02-17T02:38:29;10.20;99.90
55211;DHT22;41082;52.822;6.666;2023-02-17T02:41:05;10.30;99.90
55211;DHT22;41082;52.822;6.666;2023-02-17T02:43:32;10.30;99.90
55211;DHT22;41082;52.822;6.666;2023-02-17T02:45:58;10.30;99.90
55211;DHT22;41082;52.822;6.666;2023-02-17T02:48:25;10.20;99.90
55211;DHT22;41082;52.822;6.666;2023-02-17T03:04:25;10.30;99.90
55211;DHT22;41082;52.822;6.666;2023-02-17T03:07:00;10.30;99.90
55211;DHT22;41082;52.822;6.666;2023-02-17T03:09:28;10.30;99.90
55211;DHT22;41082;52.822;6.666;2023-02-17T03:11:56;10.30;99.90
55211;DHT22;41082;52.822;6.666;2023-02-17T03:14:21;10.30;99.90
55211;DHT22;41082;52.822;6.666;2023-02-17T03:16:48;10.20;99.90
55211;DHT22;41082;52.822;6.666;2023-02-17T03:19:17;10.30;99.90
55211;DHT22;41082;52.822;6.666;2023-02-17T03:24:14;10.20;99.90
55211;DHT22;41082;52.822;6.666;2023-02-17T03:26:39;10.20;99.90
55211;DHT22;41082;52.822;6.666;2023-02-17T03:29:05;10.20;99.90
55211;DHT22;41082;52.822;6.666;2023-02-17T03:31:31;10.20;99.90
55211;DHT22;41082;52.822;6.666;2023-02-17T03:33:57;10.20;99.90
55211;DHT22;41082;52.822;6.666;2023-02-17T03:36:23;10.20;99.90
55211;DHT22;41082;52.822;6.666;2023-02-17T03:38:48;10.20;99.90
55211;DHT22;41082;52.822;6.666;2023-02-17T03:41:14;10.10;99.90
55211;DHT22;41082;52.822;6.666;2023-02-17T03:43:40;10.10;99.90
55211;DHT22;41082;52.822;6.666;2023-02-17T03:46:13;10.20;99.90
55211;DHT22;41082;52.822;6.666;2023-02-17T03:48:39;10.20;99.90
55211;DHT22;41082;52.822;6.666;2023-02-17T03:51:21;10.10;99.90
55211;DHT22;41082;52.822;6.666;2023-02-17T03:53:47;10.10;99.90
55211;DHT22;41082;52.822;6.666;2023-02-17T03:56:14;10.10;99.90
55211;DHT22;41082;52.822;6.666;2023-02-17T03:58:40;10.10;99.90
55211;DHT22;41082;52.822;6.666;2023-02-17T04:01:07;10.10;99.90
55211;DHT22;41082;52.822;6.666;2023-02-17T04:03:34;10.20;99.90
55211;DHT22;41082;52.822;6.666;2023-02-17T04:06:00;10.10;99.90
55211;DHT22;41082;52.822;6.666;2023-02-17T04:08:26;10.10;99.90
55211;DHT22;41082;52.822;6.666;2023-02-17T04:10:54;10.10;99.90
55211;DHT22;41082;52.822;6.666;2023-02-17T04:13:21;10.10;99.90
55211;DHT22;41082;52.822;6.666;2023-02-17T04:15:47;10.10;99.90
55211;DHT22;41082;52.822;6.666;2023-02-17T04:18:13;10.10;99.90
55211;DHT22;41082;52.822;6.666;2023-02-17T04:20:39;10.10;99.90
55211;DHT22;41082;52.822;6.666;2023-02-17T04:23:05;10.10;99.90
55211;DHT22;41082;52.822;6.666;2023-02-17T04:25:33;10.10;99.90
55211;DHT22;41082;52.822;6.666;2023-02-17T04:28:00;10.00;99.90
55211;DHT22;41082;52.822;6.666;2023-02-17T04:30:25;10.00;99.90
55211;DHT22;41082;52.822;6.666;2023-02-17T04:32:51;10.00;99.90
55211;DHT22;41082;52.822;6.666;2023-02-17T04:35:17;10.00;99.90
55211;DHT22;41082;52.822;6.666;2023-02-17T04:37:42;10.00;99.90
55211;DHT22;41082;52.822;6.666;2023-02-17T04:40:08;10.00;99.90
55211;DHT22;41082;52.822;6.666;2023-02-17T04:42:35;10.00;99.90
55211;DHT22;41082;52.822;6.666;2023-02-17T04:45:01;10.00;99.90
55211;DHT22;41082;52.822;6.666;2023-02-17T04:47:27;9.90;99.90
55211;DHT22;41082;52.822;6.666;2023-02-17T04:49:53;9.90;99.90
55211;DHT22;41082;52.822;6.666;2023-02-17T04:52:18;9.90;99.90
55211;DHT22;41082;52.822;6.666;2023-02-17T04:54:44;9.90;99.90
55211;DHT22;41082;52.822;6.666;2023-02-17T04:57:10;9.90;99.90
55211;DHT22;41082;52.822;6.666;2023-02-17T04:59:35;9.90;99.90
55211;DHT22;41082;52.822;6.666;2023-02-17T05:02:01;9.80;99.90
55211;DHT22;41082;52.822;6.666;2023-02-17T05:04:26;9.80;99.90
55211;DHT22;41082;52.822;6.666;2023-02-17T05:06:52;9.80;99.90
55211;DHT22;41082;52.822;6.666;2023-02-17T05:09:18;9.90;99.90
55211;DHT22;41082;52.822;6.666;2023-02-17T05:11:44;9.80;99.90
55211;DHT22;41082;52.822;6.666;2023-02-17T05:14:09;9.80;99.90
55211;DHT22;41082;52.822;6.666;2023-02-17T05:16:35;9.90;99.90
55211;DHT22;41082;52.822;6.666;2023-02-17T05:19:01;9.70;99.90
55211;DHT22;41082;52.822;6.666;2023-02-17T05:21:26;9.80;99.90
55211;DHT22;41082;52.822;6.666;2023-02-17T05:23:52;9.80;99.90
55211;DHT22;41082;52.822;6.666;2023-02-17T05:26:17;9.90;99.90
55211;DHT22;41082;52.822;6.666;2023-02-17T05:28:43;9.80;99.90
55211;DHT22;41082;52.822;6.666;2023-02-17T05:31:09;9.80;99.90
55211;DHT22;41082;52.822;6.666;2023-02-17T05:33:35;9.80;99.90
55211;DHT22;41082;52.822;6.666;2023-02-17T05:36:05;9.80;99.90
55211;DHT22;41082;52.822;6.666;2023-02-17T05:38:31;9.80;99.90
55211;DHT22;41082;52.822;6.666;2023-02-17T05:40:56;9.90;99.90
55211;DHT22;41082;52.822;6.666;2023-02-17T05:43:22;9.80;99.90
55211;DHT22;41082;52.822;6.666;2023-02-17T05:45:47;9.80;99.90
55211;DHT22;41082;52.822;6.666;2023-02-17T05:48:13;9.80;99.90
55211;DHT22;41082;52.822;6.666;2023-02-17T05:50:39;9.80;99.90
55211;DHT22;41082;52.822;6.666;2023-02-17T05:53:04;9.80;99.90
55211;DHT22;41082;52.822;6.666;2023-02-17T05:55:30;9.80;99.90
55211;DHT22;41082;52.822;6.666;2023-02-17T05:57:56;9.80;99.90
55211;DHT22;41082;52.822;6.666;2023-02-17T06:00:21;9.70;99.90
55211;DHT22;41082;52.822;6.666;2023-02-17T06:02:47;9.70;99.90
55211;DHT22;41082;52.822;6.666;2023-02-17T06:05:12;9.70;99.90
55211;DHT22;41082;52.822;6.666;2023-02-17T06:07:38;9.70;99.90
55211;DHT22;41082;52.822;6.666;2023-02-17T06:10:04;9.80;99.90
55211;DHT22;41082;52.822;6.666;2023-02-17T06:12:30;9.80;99.90
55211;DHT22;41082;52.822;6.666;2023-02-17T06:14:55;9.80;99.90
55211;DHT22;41082;52.822;6.666;2023-02-17T06:17:21;9.80;99.90
55211;DHT22;41082;52.822;6.666;2023-02-17T06:19:46;9.80;99.90
55211;DHT22;41082;52.822;6.666;2023-02-17T06:22:12;9.80;99.90
55211;DHT22;41082;52.822;6.666;2023-02-17T06:24:38;9.80;99.90
55211;DHT22;41082;52.822;6.666;2023-02-17T06:27:03;9.80;99.90
55211;DHT22;41082;52.822;6.666;2023-02-17T06:29:29;9.80;99.90
55211;DHT22;41082;52.822;6.666;2023-02-17T06:31:54;9.90;99.90
55211;DHT22;41082;52.822;6.666;2023-02-17T06:34:20;10.00;99.90
55211;DHT22;41082;52.822;6.666;2023-02-17T06:36:45;10.00;99.90
55211;DHT22;41082;52.822;6.666;2023-02-17T06:39:11;9.90;99.90
55211;DHT22;41082;52.822;6.666;2023-02-17T06:41:36;9.90;99.90
55211;DHT22;41082;52.822;6.666;2023-02-17T06:44:02;9.90;99.90
55211;DHT22;41082;52.822;6.666;2023-02-17T06:46:28;9.90;99.90
55211;DHT22;41082;52.822;6.666;2023-02-17T06:48:54;9.90;99.90
55211;DHT22;41082;52.822;6.666;2023-02-17T06:51:19;10.00;99.90
55211;DHT22;41082;52.822;6.666;2023-02-17T06:53:45;9.90;99.90
55211;DHT22;41082;52.822;6.666;2023-02-17T06:56:10;9.90;99.90
55211;DHT22;41082;52.822;6.666;2023-02-17T06:58:36;9.90;99.90
55211;DHT22;41082;52.822;6.666;2023-02-17T07:01:02;10.00;99.90
55211;DHT22;41082;52.822;6.666;2023-02-17T07:03:28;10.00;99.90
55211;DHT22;41082;52.822;6.666;2023-02-17T07:05:56;10.00;99.90
55211;DHT22;41082;52.822;6.666;2023-02-17T07:08:22;10.10;99.90
55211;DHT22;41082;52.822;6.666;2023-02-17T07:10:48;10.00;99.90
55211;DHT22;41082;52.822;6.666;2023-02-17T07:13:14;10.10;99.90
55211;DHT22;41082;52.822;6.666;2023-02-17T07:15:39;10.00;99.90
55211;DHT22;41082;52.822;6.666;2023-02-17T07:18:05;10.10;99.90
55211;DHT22;41082;52.822;6.666;2023-02-17T07:20:30;10.00;99.90
55211;DHT22;41082;52.822;6.666;2023-02-17T07:22:57;10.10;99.90
55211;DHT22;41082;52.822;6.666;2023-02-17T07:25:23;10.10;99.90
55211;DHT22;41082;52.822;6.666;2023-02-17T07:27:48;10.10;99.90
55211;DHT22;41082;52.822;6.666;2023-02-17T07:30:14;10.10;99.90
55211;DHT22;41082;52.822;6.666;2023-02-17T07:32:40;10.10;99.90
55211;DHT22;41082;52.822;6.666;2023-02-17T07:35:05;10.20;99.90
55211;DHT22;41082;52.822;6.666;2023-02-17T07:37:31;10.10;99.90
55211;DHT22;41082;52.822;6.666;2023-02-17T07:39:58;10.20;99.90
55211;DHT22;41082;52.822;6.666;2023-02-17T07:42:26;10.20;99.90
55211;DHT22;41082;52.822;6.666;2023-02-17T07:44:52;10.30;99.90
55211;DHT22;41082;52.822;6.666;2023-02-17T07:47:17;10.30;99.90
55211;DHT22;41082;52.822;6.666;2023-02-17T07:49:43;10.20;99.90
55211;DHT22;41082;52.822;6.666;2023-02-17T07:52:09;10.30;99.90
55211;DHT22;41082;52.822;6.666;2023-02-17T07:54:34;10.30;99.90
55211;DHT22;41082;52.822;6.666;2023-02-17T07:57:00;10.40;99.90
55211;DHT22;41082;52.822;6.666;2023-02-17T07:59:26;10.40;99.90
55211;DHT22;41082;52.822;6.666;2023-02-17T08:01:51;10.40;99.90
55211;DHT22;41082;52.822;6.666;2023-02-17T08:04:17;10.40;99.90
55211;DHT22;41082;52.822;6.666;2023-02-17T08:06:42;10.50;99.90
55211;DHT22;41082;52.822;6.666;2023-02-17T08:09:11;10.50;99.90
55211;DHT22;41082;52.822;6.666;2023-02-17T08:11:55;10.50;99.90
55211;DHT22;41082;52.822;6.666;2023-02-17T08:14:40;10.50;99.90
55211;DHT22;41082;52.822;6.666;2023-02-17T08:17:05;10.50;99.90
55211;DHT22;41082;52.822;6.666;2023-02-17T08:19:32;10.50;99.90
55211;DHT22;41082;52.822;6.666;2023-02-17T08:21:57;10.50;99.90
55211;DHT22;41082;52.822;6.666;2023-02-17T08:24:23;10.60;99.90
55211;DHT22;41082;52.822;6.666;2023-02-17T08:26:49;10.60;99.90
55211;DHT22;41082;52.822;6.666;2023-02-17T08:29:15;10.70;99.90
55211;DHT22;41082;52.822;6.666;2023-02-17T08:31:41;10.60;99.90
55211;DHT22;41082;52.822;6.666;2023-02-17T08:34:09;10.70;99.90
55211;DHT22;41082;52.822;6.666;2023-02-17T08:36:35;10.70;99.90
55211;DHT22;41082;52.822;6.666;2023-02-17T08:39:06;10.80;99.90
55211;DHT22;41082;52.822;6.666;2023-02-17T08:41:35;10.80;99.90
55211;DHT22;41082;52.822;6.666;2023-02-17T08:44:06;10.90;99.90
55211;DHT22;41082;52.822;6.666;2023-02-17T08:46:33;10.90;99.90
55211;DHT22;41082;52.822;6.666;2023-02-17T08:48:59;11.00;99.90
55211;DHT22;41082;52.822;6.666;2023-02-17T08:51:24;11.00;99.90
55211;DHT22;41082;52.822;6.666;2023-02-17T08:53:55;11.00;99.90
55211;DHT22;41082;52.822;6.666;2023-02-17T08:56:22;11.00;99.90
55211;DHT22;41082;52.822;6.666;2023-02-17T08:58:48;11.00;99.90
55211;DHT22;41082;52.822;6.666;2023-02-17T09:01:14;11.10;99.90
55211;DHT22;41082;52.822;6.666;2023-02-17T09:03:43;11.10;99.90
55211;DHT22;41082;52.822;6.666;2023-02-17T09:06:09;11.20;99.90
55211;DHT22;41082;52.822;6.666;2023-02-17T09:08:35;11.20;99.90
55211;DHT22;41082;52.822;6.666;2023-02-17T09:11:01;11.20;99.90
55211;DHT22;41082;52.822;6.666;2023-02-17T09:13:27;11.20;99.90
55211;DHT22;41082;52.822;6.666;2023-02-17T09:15:53;11.30;99.90
55211;DHT22;41082;52.822;6.666;2023-02-17T09:18:19;11.30;99.90
55211;DHT22;41082;52.822;6.666;2023-02-17T09:20:45;11.30;99.90
55211;DHT22;41082;52.822;6.666;2023-02-17T09:23:11;11.30;99.90
55211;DHT22;41082;52.822;6.666;2023-02-17T09:25:37;11.30;99.90
55211;DHT22;41082;52.822;6.666;2023-02-17T09:28:03;11.30;99.90
55211;DHT22;41082;52.822;6.666;2023-02-17T09:30:28;11.40;99.90
55211;DHT22;41082;52.822;6.666;2023-02-17T09:32:54;11.30;99.90
55211;DHT22;41082;52.822;6.666;2023-02-17T09:35:20;11.40;99.90
55211;DHT22;41082;52.822;6.666;2023-02-17T09:37:45;11.50;99.90
55211;DHT22;41082;52.822;6.666;2023-02-17T09:40:18;11.50;99.90
55211;DHT22;41082;52.822;6.666;2023-02-17T09:42:44;11.50;99.90
55211;DHT22;41082;52.822;6.666;2023-02-17T09:45:20;11.60;99.90
55211;DHT22;41082;52.822;6.666;2023-02-17T09:47:50;11.60;99.90
55211;DHT22;41082;52.822;6.666;2023-02-17T09:53:16;11.60;99.90
55211;DHT22;41082;52.822;6.666;2023-02-17T09:55:52;11.70;99.90
55211;DHT22;41082;52.822;6.666;2023-02-17T09:58:25;11.70;99.90
55211;DHT22;41082;52.822;6.666;2023-02-17T10:00:56;11.70;99.90
55211;DHT22;41082;52.822;6.666;2023-02-17T10:03:30;11.80;99.90
55211;DHT22;41082;52.822;6.666;2023-02-17T10:08:56;11.70;99.90
55211;DHT22;41082;52.822;6.666;2023-02-17T10:11:36;11.80;99.90
55211;DHT22;41082;52.822;6.666;2023-02-17T10:17:34;11.70;99.90
55211;DHT22;41082;52.822;6.666;2023-02-17T10:20:16;11.70;99.90
55211;DHT22;41082;52.822;6.666;2023-02-17T10:22:47;11.70;99.90
55211;DHT22;41082;52.822;6.666;2023-02-17T10:25:24;11.70;99.90
55211;DHT22;41082;52.822;6.666;2023-02-17T10:28:07;11.70;99.90
55211;DHT22;41082;52.822;6.666;2023-02-17T10:33:22;11.80;99.90
55211;DHT22;41082;52.822;6.666;2023-02-17T10:35:52;11.80;99.90
55211;DHT22;41082;52.822;6.666;2023-02-17T10:41:23;11.70;99.90
55211;DHT22;41082;52.822;6.666;2023-02-17T10:43:51;11.70;99.90
55211;DHT22;41082;52.822;6.666;2023-02-17T10:46:22;11.80;99.90
55211;DHT22;41082;52.822;6.666;2023-02-17T10:48:52;11.80;99.90
55211;DHT22;41082;52.822;6.666;2023-02-17T10:51:21;11.70;99.90
55211;DHT22;41082;52.822;6.666;2023-02-17T10:53:56;11.80;99.90
55211;DHT22;41082;52.822;6.666;2023-02-17T10:57:00;11.70;99.90
55211;DHT22;41082;52.822;6.666;2023-02-17T10:59:35;11.70;99.90
55211;DHT22;41082;52.822;6.666;2023-02-17T11:02:21;11.80;99.90
55211;DHT22;41082;52.822;6.666;2023-02-17T11:04:51;11.80;99.90
55211;DHT22;41082;52.822;6.666;2023-02-17T11:07:30;11.80;99.90
55211;DHT22;41082;52.822;6.666;2023-02-17T11:10:00;11.90;99.90
55211;DHT22;41082;52.822;6.666;2023-02-17T11:12:38;11.90;99.90
55211;DHT22;41082;52.822;6.666;2023-02-17T11:15:14;11.90;99.90
55211;DHT22;41082;52.822;6.666;2023-02-17T11:17:40;11.90;99.90
55211;DHT22;41082;52.822;6.666;2023-02-17T11:22:44;11.90;99.90
55211;DHT22;41082;52.822;6.666;2023-02-17T11:25:25;11.90;99.90
55211;DHT22;41082;52.822;6.666;2023-02-17T11:27:55;11.90;99.90
55211;DHT22;41082;52.822;6.666;2023-02-17T11:30:21;11.90;99.90
55211;DHT22;41082;52.822;6.666;2023-02-17T11:32:47;11.90;99.90
55211;DHT22;41082;52.822;6.666;2023-02-17T11:38:02;11.90;99.90
55211;DHT22;41082;52.822;6.666;2023-02-17T11:40:29;12.00;99.90
55211;DHT22;41082;52.822;6.666;2023-02-17T11:42:58;12.00;99.90
55211;DHT22;41082;52.822;6.666;2023-02-17T11:45:27;12.00;99.90
55211;DHT22;41082;52.822;6.666;2023-02-17T11:50:59;12.00;99.90
55211;DHT22;41082;52.822;6.666;2023-02-17T11:56:36;12.10;99.90
55211;DHT22;41082;52.822;6.666;2023-02-17T11:59:32;12.00;99.90
55211;DHT22;41082;52.822;6.666;2023-02-17T12:07:44;12.00;99.90
55211;DHT22;41082;52.822;6.666;2023-02-17T12:13:28;11.90;99.90
55211;DHT22;41082;52.822;6.666;2023-02-17T12:16:05;11.90;99.90
55211;DHT22;41082;52.822;6.666;2023-02-17T12:26:54;11.90;99.90
55211;DHT22;41082;52.822;6.666;2023-02-17T12:29:41;11.90;99.90
55211;DHT22;41082;52.822;6.666;2023-02-17T12:34:54;11.80;99.90
55211;DHT22;41082;52.822;6.666;2023-02-17T12:37:28;11.80;99.90
55211;DHT22;41082;52.822;6.666;2023-02-17T12:39:55;11.80;99.90
55211;DHT22;41082;52.822;6.666;2023-02-17T12:42:34;11.70;99.90
55211;DHT22;41082;52.822;6.666;2023-02-17T12:45:18;11.70;99.90
55211;DHT22;41082;52.822;6.666;2023-02-17T12:47:52;11.70;99.90
55211;DHT22;41082;52.822;6.666;2023-02-17T12:50:32;11.70;99.90
55211;DHT22;41082;52.822;6.666;2023-02-17T12:53:04;11.70;99.90
55211;DHT22;41082;52.822;6.666;2023-02-17T12:55:42;11.80;99.90
55211;DHT22;41082;52.822;6.666;2023-02-17T12:58:18;11.80;99.90
55211;DHT22;41082;52.822;6.666;2023-02-17T13:00:53;11.80;99.90
55211;DHT22;41082;52.822;6.666;2023-02-17T13:03:20;11.90;99.90
55211;DHT22;41082;52.822;6.666;2023-02-17T13:08:38;11.90;99.90
55211;DHT22;41082;52.822;6.666;2023-02-17T13:11:09;11.90;99.90
55211;DHT22;41082;52.822;6.666;2023-02-17T13:13:35;11.90;99.90
55211;DHT22;41082;52.822;6.666;2023-02-17T13:16:08;11.80;99.90
55211;DHT22;41082;52.822;6.666;2023-02-17T13:18:40;11.90;99.90
55211;DHT22;41082;52.822;6.666;2023-02-17T13:21:26;11.90;99.90
55211;DHT22;41082;52.822;6.666;2023-02-17T13:23:59;11.90;99.90
55211;DHT22;41082;52.822;6.666;2023-02-17T13:26:33;11.90;99.90
55211;DHT22;41082;52.822;6.666;2023-02-17T13:32:01;11.90;99.90
55211;DHT22;41082;52.822;6.666;2023-02-17T13:34:36;12.00;99.90
55211;DHT22;41082;52.822;6.666;2023-02-17T13:37:25;12.00;99.90
55211;DHT22;41082;52.822;6.666;2023-02-17T13:42:43;12.00;99.90
55211;DHT22;41082;52.822;6.666;2023-02-17T13:47:51;12.00;99.90
55211;DHT22;41082;52.822;6.666;2023-02-17T13:52:56;11.90;99.90
55211;DHT22;41082;52.822;6.666;2023-02-17T13:55:22;11.90;99.90
55211;DHT22;41082;52.822;6.666;2023-02-17T13:57:56;11.90;99.90
55211;DHT22;41082;52.822;6.666;2023-02-17T14:00:27;11.80;99.90
55211;DHT22;41082;52.822;6.666;2023-02-17T14:02:56;11.80;99.90
55211;DHT22;41082;52.822;6.666;2023-02-17T14:08:23;11.80;99.90
55211;DHT22;41082;52.822;6.666;2023-02-17T14:10:51;11.80;99.90
55211;DHT22;41082;52.822;6.666;2023-02-17T14:13:17;11.70;99.90
55211;DHT22;41082;52.822;6.666;2023-02-17T14:19:06;11.70;99.90
55211;DHT22;41082;52.822;6.666;2023-02-17T14:21:32;11.80;99.90
55211;DHT22;41082;52.822;6.666;2023-02-17T14:23:58;11.80;99.90
55211;DHT22;41082;52.822;6.666;2023-02-17T14:26:31;11.80;99.90
55211;DHT22;41082;52.822;6.666;2023-02-17T14:29:02;11.80;99.90
55211;DHT22;41082;52.822;6.666;2023-02-17T14:31:35;11.80;99.90
55211;DHT22;41082;52.822;6.666;2023-02-17T14:34:01;11.90;99.90
55211;DHT22;41082;52.822;6.666;2023-02-17T14:36:33;12.00;99.90
55211;DHT22;41082;52.822;6.666;2023-02-17T14:39:00;12.00;99.90
55211;DHT22;41082;52.822;6.666;2023-02-17T14:41:27;12.10;99.90
55211;DHT22;41082;52.822;6.666;2023-02-17T14:43:52;12.10;99.90
55211;DHT22;41082;52.822;6.666;2023-02-17T14:46:18;12.10;99.90
55211;DHT22;41082;52.822;6.666;2023-02-17T14:48:45;12.10;99.90
55211;DHT22;41082;52.822;6.666;2023-02-17T14:51:14;12.10;99.90
55211;DHT22;41082;52.822;6.666;2023-02-17T14:53:40;12.10;99.90
55211;DHT22;41082;52.822;6.666;2023-02-17T14:56:33;12.10;99.90
55211;DHT22;41082;52.822;6.666;2023-02-17T14:59:00;12.10;99.90
55211;DHT22;41082;52.822;6.666;2023-02-17T15:01:26;12.20;99.90
55211;DHT22;41082;52.822;6.666;2023-02-17T15:03:53;12.20;99.90
55211;DHT22;41082;52.822;6.666;2023-02-17T15:06:29;12.10;99.90
55211;DHT22;41082;52.822;6.666;2023-02-17T15:08:59;12.10;99.90
55211;DHT22;41082;52.822;6.666;2023-02-17T15:11:32;12.10;99.90
55211;DHT22;41082;52.822;6.666;2023-02-17T15:13:59;12.20;99.90
55211;DHT22;41082;52.822;6.666;2023-02-17T15:16:27;12.10;99.90
55211;DHT22;41082;52.822;6.666;2023-02-17T15:18:52;12.10;99.90
55211;DHT22;41082;52.822;6.666;2023-02-17T15:21:29;12.10;99.90
55211;DHT22;41082;52.822;6.666;2023-02-17T15:24:00;12.10;99.90
55211;DHT22;41082;52.822;6.666;2023-02-17T15:26:27;12.00;99.90
55211;DHT22;41082;52.822;6.666;2023-02-17T15:28:55;11.80;99.90
55211;DHT22;41082;52.822;6.666;2023-02-17T15:31:22;11.90;99.90
55211;DHT22;41082;52.822;6.666;2023-02-17T15:33:55;11.80;99.90
55211;DHT22;41082;52.822;6.666;2023-02-17T15:36:21;11.90;99.90
55211;DHT22;41082;52.822;6.666;2023-02-17T15:38:47;11.80;99.90
55211;DHT22;41082;52.822;6.666;2023-02-17T15:41:23;11.70;99.90
55211;DHT22;41082;52.822;6.666;2023-02-17T15:43:50;11.70;99.90
55211;DHT22;41082;52.822;6.666;2023-02-17T15:46:18;11.70;99.90
55211;DHT22;41082;52.822;6.666;2023-02-17T15:48:46;11.70;99.90
55211;DHT22;41082;52.822;6.666;2023-02-17T15:51:15;11.70;99.90
55211;DHT22;41082;52.822;6.666;2023-02-17T15:53:46;11.70;99.90
55211;DHT22;41082;52.822;6.666;2023-02-17T15:56:24;11.60;99.90
55211;DHT22;41082;52.822;6.666;2023-02-17T15:58:51;11.60;99.90
55211;DHT22;41082;52.822;6.666;2023-02-17T16:01:30;11.50;99.90
55211;DHT22;41082;52.822;6.666;2023-02-17T16:03:56;11.50;99.90
55211;DHT22;41082;52.822;6.666;2023-02-17T16:06:24;11.50;99.90
55211;DHT22;41082;52.822;6.666;2023-02-17T16:08:49;11.40;99.90
55211;DHT22;41082;52.822;6.666;2023-02-17T16:11:16;11.30;99.90
55211;DHT22;41082;52.822;6.666;2023-02-17T16:13:43;11.30;99.90
55211;DHT22;41082;52.822;6.666;2023-02-17T16:16:21;11.30;99.90
55211;DHT22;41082;52.822;6.666;2023-02-17T16:18:48;11.20;99.90
55211;DHT22;41082;52.822;6.666;2023-02-17T16:21:14;11.20;99.90
55211;DHT22;41082;52.822;6.666;2023-02-17T16:23:40;11.10;99.90
55211;DHT22;41082;52.822;6.666;2023-02-17T16:26:14;11.00;99.90
55211;DHT22;41082;52.822;6.666;2023-02-17T16:28:44;11.00;99.90
55211;DHT22;41082;52.822;6.666;2023-02-17T16:31:10;11.00;99.90
55211;DHT22;41082;52.822;6.666;2023-02-17T16:33:35;11.00;99.90
55211;DHT22;41082;52.822;6.666;2023-02-17T16:36:01;10.90;99.90
55211;DHT22;41082;52.822;6.666;2023-02-17T16:38:27;11.00;99.90
55211;DHT22;41082;52.822;6.666;2023-02-17T16:40:54;10.80;99.90
55211;DHT22;41082;52.822;6.666;2023-02-17T16:43:22;10.80;99.90
55211;DHT22;41082;52.822;6.666;2023-02-17T16:45:55;10.80;99.90
55211;DHT22;41082;52.822;6.666;2023-02-17T16:48:26;10.60;99.90
55211;DHT22;41082;52.822;6.666;2023-02-17T16:50:52;10.60;99.90
55211;DHT22;41082;52.822;6.666;2023-02-17T16:53:18;10.50;99.90
55211;DHT22;41082;52.822;6.666;2023-02-17T16:55:44;10.40;99.90
55211;DHT22;41082;52.822;6.666;2023-02-17T16:58:20;10.40;99.90
55211;DHT22;41082;52.822;6.666;2023-02-17T17:00:49;10.40;99.90
55211;DHT22;41082;52.822;6.666;2023-02-17T17:03:16;10.30;99.90
55211;DHT22;41082;52.822;6.666;2023-02-17T17:05:42;10.30;99.90
55211;DHT22;41082;52.822;6.666;2023-02-17T17:08:12;10.30;99.90
55211;DHT22;41082;52.822;6.666;2023-02-17T17:10:42;10.30;99.90
55211;DHT22;41082;52.822;6.666;2023-02-17T17:13:08;10.20;99.90
55211;DHT22;41082;52.822;6.666;2023-02-17T17:15:40;10.10;99.90
55211;DHT22;41082;52.822;6.666;2023-02-17T17:18:08;10.10;99.90